Alexandria, Nebraska
Current Conditions -  °F | °C
As of 8:55 PM on Saturday 25 Oct 2014 (Local Time) from KHJH Reporting Station
Clear Clear  
Wind Chill: 16°   Ceiling: Unl
Heat Index: 16°   Visibility: 10mi
Dew Point:   Wind: 6mph
Humidity: 63%   Direction: 70°ENE
Pressure: 29.99"   Gusts: NA
Location:  40.25°N, 97.39°W
Report Text: KHJH 260155Z AUTO 07005KT 10SM CLR 16/09 A2999 RMK AO2 T01550085
Loading
Personal Weather Stations






























Interactive Weather Map
Tropical Storm Tracking
New forecast layout! Learn more

10-Day Weather Forecast

Advertisements
Track Severe Weather on mobile